createdAt,value
2023-03-06T00:01:17.145Z,96304.41
2023-03-06T00:03:44.290Z,96293.28
2023-03-06T00:06:11.348Z,96280.41
2023-03-06T00:08:38.306Z,96289.06
2023-03-06T00:11:05.469Z,96288.34
2023-03-06T00:13:34.451Z,96294.34
2023-03-06T00:16:01.725Z,96299.97
2023-03-06T00:18:28.936Z,96279.28
2023-03-06T00:20:55.914Z,96295.44
2023-03-06T00:23:23.217Z,96299.88
2023-03-06T00:25:50.519Z,96295.44
2023-03-06T00:28:17.960Z,96297.75
2023-03-06T00:30:46.519Z,96286.75
2023-03-06T00:33:13.421Z,96278.34
2023-03-06T00:35:41.387Z,96308.09
2023-03-06T00:38:10.379Z,96285.41
2023-03-06T00:40:37.345Z,96281.75
2023-03-06T00:43:04.176Z,96301.78
2023-03-06T00:45:31.298Z,96293.53
2023-03-06T00:47:58.288Z,96281.72
2023-03-06T00:50:25.484Z,96293.53
2023-03-06T00:52:52.520Z,96299.84
2023-03-06T00:55:20.098Z,96266.09
2023-03-06T00:57:47.183Z,96296.28
2023-03-06T01:00:14.744Z,96287.41
2023-03-06T01:02:41.814Z,96299.81
2023-03-06T01:05:09.449Z,96288.25
2023-03-06T01:07:37.865Z,96298.31
2023-03-06T01:10:05.873Z,96300.22
2023-03-06T01:12:32.805Z,96306.78
2023-03-06T01:15:00.496Z,96309.09
2023-03-06T01:17:30.431Z,96319.25
2023-03-06T01:19:58.129Z,96318.31
2023-03-06T01:22:25.061Z,96326.13
2023-03-06T01:24:53.437Z,96322.69
2023-03-06T01:27:22.019Z,96333.44
2023-03-06T01:29:49.010Z,96322.69
2023-03-06T01:32:16.037Z,96315.69
2023-03-06T01:34:43.064Z,96305.66
2023-03-06T01:37:09.957Z,96323.06
2023-03-06T01:40:02.375Z,96334.34
2023-03-06T01:42:32.095Z,96327.25
2023-03-06T01:45:01.650Z,96317.78
2023-03-06T01:47:31.154Z,96321.84
2023-03-06T01:50:01.513Z,96312.41
2023-03-06T01:52:38.394Z,96323.84
2023-03-06T01:55:11.300Z,96326.81
2023-03-06T01:57:44.897Z,96331.88
2023-03-06T02:00:18.829Z,96313.97
2023-03-06T02:02:52.348Z,96314.47
2023-03-06T02:05:19.914Z,96319.97
2023-03-06T02:07:48.425Z,96322.72
2023-03-06T02:10:16.791Z,96322.38
2023-03-06T02:12:45.743Z,96321.81
2023-03-06T02:15:15.501Z,96329.72
2023-03-06T02:17:45.466Z,96337.31
2023-03-06T02:20:22.264Z,96338.63
2023-03-06T02:23:06.253Z,96335.56
2023-03-06T02:25:48.777Z,96334.63
2023-03-06T02:28:22.094Z,96337.94
2023-03-06T02:30:52.133Z,96353.00
2023-03-06T02:33:27.547Z,96349.38
2023-03-06T02:36:06.477Z,96350.16
2023-03-06T02:38:46.029Z,96304.00
2023-03-06T02:41:12.921Z,96335.97
2023-03-06T02:43:42.278Z,96346.50
2023-03-06T02:46:09.358Z,96353.44
2023-03-06T02:48:36.412Z,96353.38
2023-03-06T02:51:03.519Z,96355.72
2023-03-06T02:53:30.541Z,96342.25
2023-03-06T02:55:59.817Z,96356.16
2023-03-06T02:58:26.825Z,96365.09
2023-03-06T03:00:53.838Z,96354.19
2023-03-06T03:03:21.539Z,96359.81
2023-03-06T03:05:48.449Z,96362.88
2023-03-06T03:08:22.994Z,96358.94
2023-03-06T03:10:53.097Z,96364.00
2023-03-06T03:13:20.610Z,96366.72
2023-03-06T03:16:03.621Z,96363.69
2023-03-06T03:18:31.021Z,96294.97
2023-03-06T03:20:58.690Z,96369.66
2023-03-06T03:23:26.899Z,96376.00
2023-03-06T03:26:06.960Z,96379.97
2023-03-06T03:28:35.220Z,96370.31
2023-03-06T03:31:07.394Z,96381.66
2023-03-06T03:33:35.439Z,96382.31
2023-03-06T03:36:05.059Z,96371.91
2023-03-06T03:38:35.300Z,96382.03
2023-03-06T03:41:03.294Z,96383.06
2023-03-06T03:43:31.359Z,96380.44
2023-03-06T03:45:59.273Z,96391.06
2023-03-06T03:48:26.511Z,96387.53
2023-03-06T03:50:53.599Z,96378.19
2023-03-06T03:53:23.844Z,96403.25
2023-03-06T03:55:51.332Z,96399.94
2023-03-06T03:58:21.185Z,96401.22
2023-03-06T04:00:49.419Z,96399.09
2023-03-06T04:03:16.409Z,96390.69
2023-03-06T04:05:45.725Z,96383.16
2023-03-06T04:08:15.639Z,96403.19
2023-03-06T04:10:45.628Z,96404.53
2023-03-06T04:13:15.036Z,96394.53
2023-03-06T04:15:45.203Z,96395.63
2023-03-06T04:18:12.497Z,96400.25
2023-03-06T04:20:39.708Z,96394.94
2023-03-06T04:23:07.242Z,96392.94
2023-03-06T04:25:34.320Z,96392.59
2023-03-06T04:28:04.451Z,96398.41
2023-03-06T04:30:32.323Z,96408.97
2023-03-06T04:33:00.733Z,96426.59
2023-03-06T04:35:27.902Z,96418.91
2023-03-06T04:38:00.526Z,96424.88
2023-03-06T04:40:32.468Z,96429.91
2023-03-06T04:43:00.863Z,96434.50
2023-03-06T04:45:30.342Z,96435.59
2023-03-06T04:47:57.594Z,96436.00
2023-03-06T04:50:25.450Z,96447.13
2023-03-06T04:52:52.787Z,96436.00
2023-03-06T04:55:20.434Z,96449.34
2023-03-06T04:57:47.898Z,96457.50
2023-03-06T05:00:20.959Z,96462.84
2023-03-06T05:02:48.975Z,96465.38
2023-03-06T05:05:17.173Z,96456.63
2023-03-06T05:07:44.691Z,96457.88
2023-03-06T05:10:15.055Z,96469.63
2023-03-06T05:12:42.439Z,96461.72
2023-03-06T05:15:11.369Z,96464.13
2023-03-06T05:17:38.939Z,96450.97
2023-03-06T05:20:11.083Z,96467.44
2023-03-06T05:22:38.192Z,96478.72
2023-03-06T05:25:05.939Z,96478.81
2023-03-06T05:27:33.829Z,96477.22
2023-03-06T05:30:01.420Z,96478.97
2023-03-06T05:32:31.184Z,96482.22
2023-03-06T05:34:58.511Z,96483.09
2023-03-06T05:37:25.518Z,96478.06
2023-03-06T05:39:52.767Z,96497.78
2023-03-06T05:42:19.852Z,96493.03
2023-03-06T05:44:46.700Z,96487.97
2023-03-06T05:47:13.953Z,96510.50
2023-03-06T05:49:41.282Z,96498.03
2023-03-06T05:52:09.356Z,96516.53
2023-03-06T05:54:37.401Z,96506.47
2023-03-06T05:57:05.468Z,96514.09
2023-03-06T05:59:33.476Z,96523.25
2023-03-06T06:02:01.031Z,96508.75
2023-03-06T06:04:28.323Z,96510.09
2023-03-06T06:06:57.912Z,96508.56
2023-03-06T06:09:25.984Z,96518.50
2023-03-06T06:12:03.772Z,96532.88
2023-03-06T06:14:34.512Z,96537.72
2023-03-06T06:17:02.403Z,96500.44
2023-03-06T06:19:30.687Z,96537.81
2023-03-06T06:21:57.875Z,96539.50
2023-03-06T06:24:26.399Z,96550.44
2023-03-06T06:26:55.904Z,96527.28
2023-03-06T06:29:24.524Z,96549.63
2023-03-06T06:31:52.494Z,96563.09
2023-03-06T06:34:20.186Z,96564.97
2023-03-06T06:36:47.978Z,96565.22
2023-03-06T06:39:17.416Z,96569.63
2023-03-06T06:42:02.221Z,96568.63
2023-03-06T06:44:29.943Z,96562.03
2023-03-06T06:49:45.169Z,96559.25
2023-03-06T06:52:12.128Z,96563.69
2023-03-06T06:54:39.044Z,96577.56
2023-03-06T06:57:06.473Z,96584.56
2023-03-06T06:59:37.993Z,96572.53
2023-03-06T07:02:06.044Z,96584.94
2023-03-06T07:04:33.181Z,96587.19
2023-03-06T07:07:01.378Z,96582.75
2023-03-06T07:09:32.000Z,96566.34
2023-03-06T07:12:02.454Z,96594.72
2023-03-06T07:14:29.482Z,96590.78
2023-03-06T07:16:56.475Z,96593.13
2023-03-06T07:19:23.521Z,96587.41
2023-03-06T07:21:50.881Z,96583.47
2023-03-06T07:24:21.557Z,96592.97
2023-03-06T07:26:49.637Z,96568.88
2023-03-06T07:29:16.964Z,96592.53
2023-03-06T07:31:44.550Z,96573.53
2023-03-06T07:34:15.376Z,96589.06
2023-03-06T07:36:42.498Z,96587.22
2023-03-06T07:39:10.199Z,96588.38
2023-03-06T07:41:37.365Z,96589.56
2023-03-06T07:44:04.477Z,96587.06
2023-03-06T07:46:31.812Z,96580.91
2023-03-06T07:48:58.917Z,96579.03
2023-03-06T07:51:25.953Z,96591.13
2023-03-06T07:53:52.924Z,96596.78
2023-03-06T07:56:19.965Z,96599.75
2023-03-06T07:58:48.165Z,96595.44
2023-03-06T08:01:17.962Z,96604.78
2023-03-06T08:03:45.118Z,96593.75
2023-03-06T08:06:17.834Z,96602.28
2023-03-06T08:08:46.285Z,96611.22
2023-03-06T08:11:15.056Z,96594.31
2023-03-06T08:13:42.146Z,96604.28
2023-03-06T08:16:10.127Z,96611.22
2023-03-06T08:18:39.818Z,96593.75
2023-03-06T08:21:11.987Z,96604.28
2023-03-06T08:23:40.331Z,96602.63
2023-03-06T08:26:11.843Z,96609.47
2023-03-06T08:28:40.732Z,96602.34
2023-03-06T08:31:16.141Z,96606.78
2023-03-06T08:33:43.168Z,96605.19
2023-03-06T08:36:10.504Z,96600.13
2023-03-06T08:38:37.519Z,96596.41
2023-03-06T08:41:04.831Z,96601.19
2023-03-06T08:43:32.373Z,96597.97
2023-03-06T08:45:59.835Z,96607.16
2023-03-06T08:48:26.806Z,96617.06
2023-03-06T08:50:53.982Z,96614.88
2023-03-06T08:53:25.848Z,96605.78
2023-03-06T08:55:57.585Z,96611.81
2023-03-06T08:58:24.748Z,96597.25
2023-03-06T09:00:52.246Z,96600.38
2023-03-06T09:03:22.384Z,96612.09
2023-03-06T09:05:51.680Z,96605.88
2023-03-06T09:08:18.883Z,96599.06
2023-03-06T09:10:48.009Z,96596.94
2023-03-06T09:13:15.382Z,96578.22
2023-03-06T09:15:46.186Z,96596.78
2023-03-06T09:18:13.441Z,96587.91
2023-03-06T09:20:40.451Z,96558.03
2023-03-06T09:23:10.922Z,96592.56
2023-03-06T09:25:38.238Z,96595.44
2023-03-06T09:28:11.688Z,96586.63
2023-03-06T09:30:41.196Z,96586.16
2023-03-06T09:33:08.681Z,96592.88
2023-03-06T09:35:36.042Z,96587.69
2023-03-06T09:38:03.664Z,96587.28
2023-03-06T09:41:01.929Z,96579.91
2023-03-06T09:43:35.603Z,96593.00
2023-03-06T09:46:30.458Z,96585.19
2023-03-06T09:49:10.514Z,96599.03
2023-03-06T09:52:16.186Z,96585.81
2023-03-06T09:54:46.273Z,96592.16
2023-03-06T09:57:19.669Z,96590.84
2023-03-06T09:59:51.001Z,96587.94
2023-03-06T10:02:54.222Z,96589.09
2023-03-06T10:05:35.903Z,96581.25
2023-03-06T10:08:30.429Z,96589.94
2023-03-06T10:11:03.745Z,96593.94
2023-03-06T10:13:50.599Z,96581.31
2023-03-06T10:16:26.419Z,96581.50
2023-03-06T10:18:55.571Z,96573.28
2023-03-06T10:21:48.015Z,96577.56
2023-03-06T10:24:35.079Z,96573.63
2023-03-06T10:27:31.735Z,96572.81
2023-03-06T10:30:04.347Z,96561.28
2023-03-06T10:32:55.322Z,96556.22
2023-03-06T10:35:30.878Z,96546.66
2023-03-06T10:38:25.521Z,96547.63
2023-03-06T10:41:11.310Z,96545.69
2023-03-06T10:44:01.746Z,96548.56
2023-03-06T10:46:38.483Z,96531.66
2023-03-06T10:49:22.693Z,96535.22
2023-03-06T10:52:21.555Z,96526.84
2023-03-06T10:54:48.855Z,96527.06
2023-03-06T10:57:24.963Z,96526.72
2023-03-06T10:59:56.735Z,96517.72
2023-03-06T11:02:29.620Z,96515.59
2023-03-06T11:05:00.387Z,96499.50
2023-03-06T11:07:33.372Z,96508.28
2023-03-06T11:10:02.438Z,96507.00
2023-03-06T11:12:40.866Z,96503.50
2023-03-06T11:15:18.860Z,96498.84
2023-03-06T11:18:01.301Z,96495.19
2023-03-06T11:20:53.155Z,96493.53
2023-03-06T11:23:37.605Z,96455.66
2023-03-06T11:26:17.372Z,96491.59
2023-03-06T11:28:48.651Z,96478.72
2023-03-06T11:31:21.279Z,96481.59
2023-03-06T11:33:54.337Z,96477.78
2023-03-06T11:36:36.501Z,96458.56
2023-03-06T11:39:11.414Z,96476.75
2023-03-06T11:42:00.191Z,96471.56
2023-03-06T11:44:50.514Z,96474.38
2023-03-06T11:47:33.829Z,96464.44
2023-03-06T11:50:10.819Z,96442.69
2023-03-06T11:52:56.236Z,96456.03
2023-03-06T11:55:32.138Z,96456.09
2023-03-06T11:58:20.372Z,96445.13
2023-03-06T12:00:47.309Z,96435.88
2023-03-06T12:04:02.805Z,96437.91
2023-03-06T12:07:26.408Z,96425.13
2023-03-06T12:09:55.015Z,96430.78
2023-03-06T12:12:29.129Z,96435.41
2023-03-06T12:15:17.222Z,96430.84
2023-03-06T12:17:50.750Z,96429.28
2023-03-06T12:20:42.821Z,96427.72
2023-03-06T12:23:24.996Z,96416.81
2023-03-06T12:26:34.274Z,96418.81
2023-03-06T12:29:14.019Z,96422.75
2023-03-06T12:32:29.033Z,96422.97
2023-03-06T12:35:33.972Z,96410.59
2023-03-06T12:38:25.640Z,96410.38
2023-03-06T12:41:31.160Z,96394.97
2023-03-06T12:44:13.050Z,96398.44
2023-03-06T12:46:45.681Z,96396.88
2023-03-06T12:49:31.923Z,96388.13
2023-03-06T12:52:00.801Z,96372.50
2023-03-06T12:54:31.438Z,96384.78
2023-03-06T12:57:06.298Z,96379.16
2023-03-06T12:59:44.753Z,96378.22
2023-03-06T13:02:30.433Z,96379.34
2023-03-06T13:05:34.887Z,96377.69
2023-03-06T13:08:16.681Z,96374.69
2023-03-06T13:11:01.140Z,96373.53
2023-03-06T13:13:40.622Z,96348.88
2023-03-06T13:16:21.432Z,96377.50
2023-03-06T13:19:18.420Z,96344.63
2023-03-06T13:22:01.069Z,96372.09
2023-03-06T13:24:33.909Z,96371.56
2023-03-06T13:27:02.218Z,96369.34
2023-03-06T13:29:38.450Z,96369.53
2023-03-06T13:32:16.561Z,96329.22
2023-03-06T13:34:49.327Z,96373.97
2023-03-06T13:37:25.335Z,96362.09
2023-03-06T13:39:55.197Z,96363.56
2023-03-06T13:42:55.736Z,96352.53
2023-03-06T13:45:43.877Z,96351.25
2023-03-06T13:48:44.599Z,96356.06
2023-03-06T13:51:26.543Z,96356.47
2023-03-06T13:54:11.848Z,96350.47
2023-03-06T13:57:03.358Z,96355.84
2023-03-06T13:59:30.402Z,96360.88
2023-03-06T14:02:08.796Z,96358.56
2023-03-06T14:04:51.053Z,96352.34
2023-03-06T14:07:21.947Z,96353.06
2023-03-06T14:10:03.443Z,96356.25
2023-03-06T14:12:36.122Z,96354.94
2023-03-06T14:15:23.424Z,96344.63
2023-03-06T14:18:24.224Z,96352.63
2023-03-06T14:21:02.196Z,96348.59
2023-03-06T14:23:32.419Z,96345.44
2023-03-06T14:26:15.318Z,96349.09
2023-03-06T14:29:02.459Z,96338.69
2023-03-06T14:31:33.577Z,96331.94
2023-03-06T14:34:05.176Z,96334.31
2023-03-06T14:36:42.153Z,96334.31
2023-03-06T14:39:29.887Z,96338.91
2023-03-06T14:42:19.091Z,96325.34
2023-03-06T14:44:47.945Z,96321.69
2023-03-06T14:47:36.449Z,96333.72
2023-03-06T14:50:24.518Z,96318.16
2023-03-06T14:53:04.979Z,96345.50
2023-03-06T14:55:36.306Z,96338.09
2023-03-06T14:58:11.792Z,96334.66
2023-03-06T15:00:44.800Z,96342.03
2023-03-06T15:03:19.479Z,96337.75
2023-03-06T15:05:47.652Z,96335.38
2023-03-06T15:08:22.521Z,96321.66
2023-03-06T15:10:58.817Z,96333.53
2023-03-06T15:13:28.462Z,96331.66
2023-03-06T15:15:59.571Z,96325.41
2023-03-06T15:18:39.801Z,96341.19
2023-03-06T15:21:08.237Z,96318.97
2023-03-06T15:23:46.009Z,96339.47
2023-03-06T15:26:37.049Z,96326.88
2023-03-06T15:29:10.848Z,96341.84
2023-03-06T15:31:42.765Z,96342.97
2023-03-06T15:34:10.273Z,96347.97
2023-03-06T15:36:38.908Z,96344.31
2023-03-06T15:39:28.764Z,96348.88
2023-03-06T15:42:14.628Z,96342.22
2023-03-06T15:44:45.357Z,96346.97
2023-03-06T15:47:13.023Z,96324.91
2023-03-06T15:49:43.783Z,96341.34
2023-03-06T15:52:15.986Z,96340.44
2023-03-06T15:54:45.960Z,96342.81
2023-03-06T15:57:29.415Z,96342.06
2023-03-06T15:59:57.864Z,96340.72
2023-03-06T16:02:24.869Z,96342.81
2023-03-06T16:04:52.604Z,96347.44
2023-03-06T16:07:21.082Z,96353.19
2023-03-06T16:09:48.184Z,96355.22
2023-03-06T16:12:22.975Z,96362.06
2023-03-06T16:14:50.042Z,96361.16
2023-03-06T16:17:17.810Z,96348.22
2023-03-06T16:19:44.861Z,96373.50
2023-03-06T16:22:11.984Z,96371.94
2023-03-06T16:24:39.002Z,96379.06
2023-03-06T16:27:06.991Z,96365.34
2023-03-06T16:29:34.481Z,96379.19
2023-03-06T16:32:02.537Z,96390.69
2023-03-06T16:34:29.628Z,96374.38
2023-03-06T16:36:56.655Z,96383.38
2023-03-06T16:39:24.544Z,96374.81
2023-03-06T16:41:52.064Z,96398.44
2023-03-06T16:44:22.012Z,96399.97
2023-03-06T16:46:52.149Z,96399.31
2023-03-06T16:49:24.722Z,96403.66
2023-03-06T16:51:58.043Z,96402.19
2023-03-06T16:54:26.558Z,96389.94
2023-03-06T16:56:53.850Z,96403.91
2023-03-06T16:59:21.120Z,96407.72
2023-03-06T17:01:48.170Z,96402.44
2023-03-06T17:04:15.249Z,96395.00
2023-03-06T17:06:43.215Z,96384.69
2023-03-06T17:09:14.835Z,96409.47
2023-03-06T17:11:45.091Z,96397.41
2023-03-06T17:14:13.373Z,96406.59
2023-03-06T17:16:40.730Z,96392.91
2023-03-06T17:19:08.915Z,96402.81
2023-03-06T17:21:41.139Z,96408.84
2023-03-06T17:24:09.982Z,96405.91
2023-03-06T17:26:37.307Z,96413.44
2023-03-06T17:29:06.950Z,96418.09
2023-03-06T17:31:34.262Z,96404.34
2023-03-06T17:34:01.203Z,96418.09
2023-03-06T17:36:29.546Z,96405.69
2023-03-06T17:38:59.895Z,96424.97
2023-03-06T17:41:27.062Z,96412.63
2023-03-06T17:43:58.473Z,96417.53
2023-03-06T17:46:26.280Z,96420.44
2023-03-06T17:48:54.480Z,96425.22
2023-03-06T17:51:21.373Z,96434.13
2023-03-06T17:53:49.317Z,96426.13
2023-03-06T17:56:16.454Z,96425.88
2023-03-06T17:58:43.392Z,96419.28
2023-03-06T18:01:11.312Z,96425.47
2023-03-06T18:03:38.704Z,96410.97
2023-03-06T18:06:09.901Z,96416.94
2023-03-06T18:08:38.309Z,96418.44
2023-03-06T18:11:08.132Z,96418.03
2023-03-06T18:13:37.191Z,96403.44
2023-03-06T18:16:05.965Z,96421.66
2023-03-06T18:18:33.839Z,96416.47
2023-03-06T18:21:05.801Z,96433.91
2023-03-06T18:23:32.838Z,96429.63
2023-03-06T18:26:11.974Z,96443.03
2023-03-06T18:28:42.551Z,96434.91
2023-03-06T18:31:26.778Z,96439.53
2023-03-06T18:33:57.744Z,96441.25
2023-03-06T18:36:27.343Z,96443.25
2023-03-06T18:38:54.756Z,96443.44
2023-03-06T18:41:22.722Z,96443.53
2023-03-06T18:43:55.385Z,96444.84
2023-03-06T18:46:22.723Z,96437.72
2023-03-06T18:48:51.023Z,96439.47
2023-03-06T18:51:19.412Z,96436.38
2023-03-06T18:53:46.869Z,96439.56
2023-03-06T18:56:19.999Z,96443.81
2023-03-06T18:58:47.598Z,96434.41
2023-03-06T19:01:14.711Z,96421.97
2023-03-06T19:03:45.224Z,96433.59
2023-03-06T19:06:14.466Z,96433.97
2023-03-06T19:08:42.181Z,96428.28
2023-03-06T19:11:11.881Z,96440.66
2023-03-06T19:13:38.893Z,96428.75
2023-03-06T19:16:08.186Z,96445.19
2023-03-06T19:18:35.596Z,96443.69
2023-03-06T19:21:17.742Z,96431.25
2023-03-06T19:23:44.950Z,96448.34
2023-03-06T19:26:12.265Z,96445.38
2023-03-06T19:28:43.393Z,96441.25
2023-03-06T19:31:15.976Z,96450.75
2023-03-06T19:33:43.311Z,96448.47
2023-03-06T19:36:12.625Z,96451.53
2023-03-06T19:38:39.974Z,96454.84
2023-03-06T19:41:11.958Z,96452.22
2023-03-06T19:43:40.968Z,96447.47
2023-03-06T19:46:15.395Z,96456.09
2023-03-06T19:48:42.806Z,96429.75
2023-03-06T19:51:10.307Z,96452.22
2023-03-06T19:53:39.737Z,96454.44
2023-03-06T19:56:13.490Z,96453.59
2023-03-06T19:58:40.934Z,96458.91
2023-03-06T20:01:10.769Z,96450.66
2023-03-06T20:03:38.749Z,96448.38
2023-03-06T20:06:09.148Z,96451.22
2023-03-06T20:08:39.571Z,96430.88
2023-03-06T20:11:06.780Z,96444.75
2023-03-06T20:13:33.664Z,96435.88
2023-03-06T20:16:04.183Z,96430.06
2023-03-06T20:18:31.145Z,96444.19
2023-03-06T20:21:02.887Z,96440.69
2023-03-06T20:23:30.480Z,96447.31
2023-03-06T20:26:02.010Z,96447.75
2023-03-06T20:28:29.151Z,96424.13
2023-03-06T20:30:56.123Z,96436.94
2023-03-06T20:33:23.253Z,96434.44
2023-03-06T20:35:50.379Z,96434.41
2023-03-06T20:38:17.468Z,96426.13
2023-03-06T20:40:44.639Z,96446.91
2023-03-06T20:43:11.626Z,96430.94
2023-03-06T20:45:39.364Z,96435.41
2023-03-06T20:48:06.651Z,96436.66
2023-03-06T20:50:33.628Z,96445.31
2023-03-06T20:53:00.781Z,96432.94
2023-03-06T20:55:27.786Z,96430.19
2023-03-06T20:57:54.719Z,96426.38
2023-03-06T21:00:21.738Z,96425.44
2023-03-06T21:02:49.090Z,96429.91
2023-03-06T21:05:16.271Z,96407.75
2023-03-06T21:07:44.499Z,96429.59
2023-03-06T21:10:11.861Z,96415.06
2023-03-06T21:12:42.677Z,96425.59
2023-03-06T21:15:09.986Z,96425.63
2023-03-06T21:17:37.901Z,96399.25
2023-03-06T21:20:06.120Z,96423.59
2023-03-06T21:22:33.277Z,96423.53
2023-03-06T21:25:02.879Z,96412.41
2023-03-06T21:27:30.754Z,96423.91
2023-03-06T21:29:57.733Z,96423.97
2023-03-06T21:32:24.804Z,96422.75
2023-03-06T21:34:51.941Z,96353.97
2023-03-06T21:37:19.274Z,96410.88
2023-03-06T21:39:46.460Z,96404.88
2023-03-06T21:42:14.041Z,96416.34
2023-03-06T21:44:41.040Z,96406.88
2023-03-06T21:47:08.572Z,96414.25
2023-03-06T21:49:35.569Z,96415.75
2023-03-06T21:52:03.329Z,96418.53
2023-03-06T21:54:30.480Z,96415.84
2023-03-06T21:56:57.940Z,96422.94
2023-03-06T21:59:25.058Z,96415.81
2023-03-06T22:01:52.135Z,96412.81
2023-03-06T22:04:19.199Z,96414.38
2023-03-06T22:06:46.152Z,96418.31
2023-03-06T22:09:16.241Z,96423.72
2023-03-06T22:11:43.736Z,96383.78
2023-03-06T22:14:10.781Z,96416.91
2023-03-06T22:16:37.936Z,96419.63
2023-03-06T22:19:05.288Z,96419.06
2023-03-06T22:21:32.371Z,96419.16
2023-03-06T22:23:59.886Z,96414.25
2023-03-06T22:26:28.928Z,96414.41
2023-03-06T22:28:56.291Z,96407.13
2023-03-06T22:31:26.037Z,96410.69
2023-03-06T22:33:55.094Z,96415.56
2023-03-06T22:36:23.367Z,96404.28
2023-03-06T22:38:54.764Z,96402.44
2023-03-06T22:41:22.119Z,96400.38
2023-03-06T22:43:49.205Z,96397.81
2023-03-06T22:46:17.827Z,96395.50
2023-03-06T22:48:45.736Z,96410.97
2023-03-06T22:51:15.570Z,96410.53
2023-03-06T22:53:43.157Z,96399.63
2023-03-06T22:56:14.879Z,96405.38
2023-03-06T22:58:42.266Z,96396.34
2023-03-06T23:01:12.069Z,96407.97
2023-03-06T23:03:42.317Z,96412.63
2023-03-06T23:06:12.013Z,96421.28
2023-03-06T23:08:39.212Z,96413.69
2023-03-06T23:11:16.051Z,96417.25
2023-03-06T23:14:02.302Z,96419.78
2023-03-06T23:16:47.770Z,96415.56
2023-03-06T23:19:33.260Z,96411.78
2023-03-06T23:22:19.297Z,96406.56
2023-03-06T23:25:06.106Z,96398.97
2023-03-06T23:27:35.166Z,96419.09
2023-03-06T23:30:02.580Z,96392.31
2023-03-06T23:32:33.094Z,96408.25
2023-03-06T23:35:00.733Z,96422.94
2023-03-06T23:37:27.706Z,96407.94
2023-03-06T23:39:54.783Z,96415.91
2023-03-06T23:42:22.676Z,96403.72
2023-03-06T23:44:49.792Z,96412.28
2023-03-06T23:47:17.411Z,96404.28
2023-03-06T23:49:44.401Z,96408.28
2023-03-06T23:52:11.365Z,96409.75
2023-03-06T23:54:38.332Z,96405.44
2023-03-06T23:57:05.423Z,96407.63
2023-03-06T23:59:32.722Z,96401.66
